Terminal Aerodrome Forecast
Issued by NWS

Home | Current Version | Previous Version | Graphics & Text | Print | Product List | Glossary On
Versions: 1 2 3 4 5 6 7 8 9 10 11 12 13 14 15 16 17 18 19
000
FTUS41 KCLE 131122
TAFFDY
TAF
KFDY 131122Z 1312/1412 30005KT P6SM BKN250
     FM131600 02008KT P6SM BKN250
     FM140000 06005KT P6SM SCT100 OVC250
     FM140400 08004KT P6SM SCT045 OVC120
     FM140800 08006KT P6SM OVC045=

USA.gov is the U.S. government's official web portal to all federal, state and local government web resources and services.